Monroe, NC

12:27 AM EDT en Abril 27, 2018 (GMT -0400)
Price Dairy Rd Unionville | | Change Station

Alt 702 ft 35.04 °N, 80.55 °W | Updated 15 seconds ago

Muy nublado
Muy nublado
55.6 ° F
Sensación térmica 55.6 ° F
N
2.7
Viento Variable Viento desde NO
Gusts 3.1 mph

Hoy
Alta -- | Baja -- ° F
--% Posibilidad de precipitaciones
Ayer
Alta -- | Baja -- ° F
Precip. -- pul
Presión 29.80 pul
Visibilidad 3.0 Millas
Nubes Muy nublado 7000 ft
Muy nublado 8500 ft
Punto de rocío 54 ° F
Humedad 93%
Precipitaciones 0.00 pul
Espesor de la nieve No disponible.
6:35 AM 8:04 PM
Gibosa creciente, 91% visible
SPECI KEQY 270411Z AUTO 31005KT 3SM BR BKN070 BKN085 13/13 A2980 RMK AO2 T01280128
Presión 29.80 pul
Visibilidad 3.0 Millas
Nubes Muy nublado 7000 ft
Muy nublado 8500 ft
Punto de rocío 54 ° F
Humedad 93%
Precipitaciones 0.00 pul
Espesor de la nieve No disponible.
6:35 AM 8:04 PM
Gibosa creciente, 91% visible
SPECI KEQY 270411Z AUTO 31005KT 3SM BR BKN070 BKN085 13/13 A2980 RMK AO2 T01280128

Get Severe Weather Alerts

Thanks for signing up!

Be on the lookout for a verification email in your inbox.

You'll start receiving the daily forecast at 6 AM.

×

10-Day Weather Forecast

Almanac

Astronomía

Apr. 27, 2018 Salida Puesta
Hora real
Crepúsculo civil
Crepúsculo náutico
Crepúsculo astronómico
Luna
Horas de luz
Horas de luz
Tomorrow will be .
, % of the Moon is Illuminated

Extremos de hoy

Máximos del estado Bajos del estado

Community

WunderPhotos

Category 6

Welcome to Category 6. This is the collective home for Weather Underground's featured writeups by Dr. Jeff Masters (right), Bob Henson (left), Chris Burt, and other regular contributors.

Nearby

Calidad del aire

  Calidad del aire Índice AQ Contaminante
Not available.

Grosos de nieve

Estación Profundido Altura

Actividad de terremotos

Ciudad Distance Mag. Tiempo y dato
Magnitud mínima muestra es 2,5.

Temperaturas de aguas costeras

Lugar Temperatura

Stations

Estaciones meteorológicas cercanas

Ubicación de la estación Temp. Vientos helados Punto de rocío Humedad Viento Precip. Alt Actualizado Tipo
                   

Watches & Warnings

There are currently no watches in effect.